Evans Junction, Iowa
Current Conditions -  °F | °C
As of 4:55 PM on Thursday 23 Oct 2014 (Local Time) from KPEA Reporting Station
Clear Clear  
Wind Chill: 66°   Ceiling: Unl
Heat Index: 66°   Visibility: 10mi
Dew Point: 57°   Wind: 3mph
Humidity: 72%   Direction: 190°S
Pressure: 30.03"   Gusts: NA
Location:  41.2952°N, 92.7652°W
Report Text: KPEA 232155Z AUTO 19003KT 10SM CLR 19/14 A3003 RMK AO2 T01910140
Loading
Personal Weather Stations






























Interactive Weather Map
Tropical Storm Tracking
New forecast layout! Learn more

10-Day Weather Forecast

Advertisements
Track Severe Weather on mobile